Time;durP1;ratioP1;P1;durP2;ratioP2;P2;SDS_P1;SDS_P2;PMS_P1;PMS_P2;Temp;Humidity;BMP_temperature;BMP_pressure;BME280_temperature;BME280_humidity;BME280_pressure;Samples;Min_cycle;Max_cycle;Signal;HPM_P1;HPM_P2
2022/08/12 00:44:55;;;;;;;0.00;0.00;;;;;;;18.21;58.91;100881.25;5014516;28;20177;-71
2022/08/12 00:47:21;;;;;;;0.00;0.00;;;;;;;18.28;58.80;100878.72;5013386;28;20165;-71
2022/08/12 00:49:50;;;;;;;0.00;0.00;;;;;;;18.37;58.33;100884.88;5013870;28;20169;-71
2022/08/12 00:52:18;;;;;;;0.00;0.00;;;;;;;18.39;58.24;100871.53;5014261;28;20184;-71
2022/08/12 00:54:53;;;;;;;0.00;0.00;;;;;;;18.46;58.59;100874.47;5013917;28;20176;-71
2022/08/12 00:57:27;;;;;;;0.00;0.00;;;;;;;18.46;58.43;100873.66;5013719;28;20162;-71
2022/08/12 00:59:55;;;;;;;0.00;0.00;;;;;;;18.47;58.13;100876.06;5013348;28;20530;-71
2022/08/12 01:02:27;;;;;;;0.00;0.00;;;;;;;18.51;58.71;100878.94;5013487;28;20255;-71
2022/08/12 01:13:21;;;;;;;0.00;0.00;;;;;;;18.43;58.87;100875.97;5012652;28;20652;-71
2022/08/12 01:15:56;;;;;;;0.00;0.00;;;;;;;18.42;58.49;100881.88;5013109;28;20180;-71
2022/08/12 01:18:24;;;;;;;0.00;0.00;;;;;;;18.44;59.43;100880.34;5012854;28;20227;-71
2022/08/12 01:21:10;;;;;;;0.00;0.00;;;;;;;18.41;59.44;100880.25;5013454;28;20177;-71
2022/08/12 01:24:16;;;;;;;0.67;0.67;;;;;;;18.21;59.73;100886.78;5011652;28;20218;-70
2022/08/12 01:26:45;;;;;;;0.00;0.00;;;;;;;18.05;60.68;100878.44;5012947;28;20628;-71
2022/08/12 01:29:14;;;;;;;0.00;0.00;;;;;;;17.96;61.49;100883.34;5012637;28;20615;-71
2022/08/12 01:31:42;;;;;;;0.00;0.00;;;;;;;17.81;61.00;100880.16;5013232;28;20177;-71
2022/08/12 01:34:11;;;;;;;0.00;0.00;;;;;;;17.69;61.85;100884.91;5013125;28;20181;-71
2022/08/12 01:36:43;;;;;;;0.00;0.00;;;;;;;17.58;62.63;100883.72;5011584;28;20181;-71
2022/08/12 01:39:09;;;;;;;0.00;0.00;;;;;;;17.48;63.64;100879.47;5013199;28;20176;-71
2022/08/12 01:41:43;;;;;;;0.00;0.00;;;;;;;17.37;64.08;100870.88;5013001;28;20243;-71
2022/08/12 01:44:10;;;;;;;0.10;0.10;;;;;;;17.25;64.54;100876.41;5011359;28;20220;-71
2022/08/12 01:47:02;;;;;;;0.00;0.00;;;;;;;17.23;65.18;100870.41;5012359;28;20176;-71
2022/08/12 01:49:49;;;;;;;0.00;0.00;;;;;;;17.27;65.90;100874.09;5004211;28;20773;-71
2022/08/12 01:52:55;;;;;;;0.00;0.00;;;;;;;17.30;65.78;100878.13;4994511;28;20193;-71
2022/08/12 01:55:23;;;;;;;0.00;0.00;;;;;;;17.34;65.35;100865.22;5012295;28;20196;-71
2022/08/12 01:57:59;;;;;;;0.00;0.00;;;;;;;17.33;65.35;100866.38;5012144;28;20181;-71
2022/08/12 02:00:34;;;;;;;0.00;0.00;;;;;;;17.33;65.32;100874.66;5012018;28;20186;-71
2022/08/12 02:03:29;;;;;;;0.00;0.00;;;;;;;17.36;65.32;100869.25;5011417;28;20334;-71
2022/08/12 02:12:08;;;;;;;0.00;0.00;;;;;;;17.36;65.10;100860.16;5012469;28;20198;-71
2022/08/12 02:15:01;;;;;;;0.00;0.00;;;;;;;17.33;65.09;100861.66;5010584;28;20586;-72
2022/08/12 02:18:02;;;;;;;0.00;0.00;;;;;;;17.34;64.90;100870.72;5010709;28;20196;-71
2022/08/12 02:20:52;;;;;;;0.00;0.00;;;;;;;17.24;65.20;100861.78;5011609;28;20183;-71
2022/08/12 02:23:20;;;;;;;0.00;0.00;;;;;;;17.04;65.25;100865.44;5011965;28;20296;-71
2022/08/12 02:25:46;;;;;;;0.00;0.00;;;;;;;16.92;65.50;100868.19;5011816;28;20665;-71
2022/08/12 02:28:12;;;;;;;0.00;0.00;;;;;;;16.85;66.02;100867.97;5011517;28;20215;-71
2022/08/12 02:30:37;;;;;;;0.00;0.00;;;;;;;16.73;66.52;100867.94;5011755;28;20177;-71
2022/08/12 02:33:05;;;;;;;0.00;0.00;;;;;;;16.57;67.47;100863.06;5012058;28;20191;-71
2022/08/12 02:35:34;;;;;;;0.00;0.00;;;;;;;16.47;67.94;100866.25;5011678;28;20264;-71
2022/08/12 02:38:03;;;;;;;0.00;0.00;;;;;;;16.50;68.30;100862.84;5011618;28;20207;-71
2022/08/12 02:40:28;;;;;;;0.00;0.00;;;;;;;16.50;68.65;100864.78;5011190;28;20184;-71
2022/08/12 02:43:02;;;;;;;0.00;0.00;;;;;;;16.33;68.91;100852.75;5010188;28;20299;-71
2022/08/12 02:45:36;;;;;;;0.00;0.00;;;;;;;16.06;69.78;100854.19;5011455;28;20280;-71
2022/08/12 02:48:06;;;;;;;0.00;0.00;;;;;;;16.03;70.01;100862.31;5010794;28;20215;-71
2022/08/12 02:50:35;;;;;;;0.00;0.00;;;;;;;16.02;70.06;100852.41;5010935;28;20200;-71
2022/08/12 02:53:03;;;;;;;0.00;0.00;;;;;;;15.93;70.25;100860.78;5012016;28;20562;-71
2022/08/12 02:55:32;;;;;;;0.00;0.00;;;;;;;15.87;70.63;100851.09;5010237;28;20176;-71
2022/08/12 02:57:58;;;;;;;0.00;0.00;;;;;;;15.90;70.56;100850.41;5011052;28;20177;-71
2022/08/12 03:00:25;;;;;;;0.10;0.10;;;;;;;15.77;70.61;100854.28;5010814;28;20262;-71
2022/08/12 03:02:51;;;;;;;0.00;0.00;;;;;;;15.61;70.83;100853.22;5011068;28;20204;-71
2022/08/12 03:05:22;;;;;;;0.00;0.00;;;;;;;15.61;70.37;100856.00;5010977;28;20181;-71
2022/08/12 03:07:52;;;;;;;0.00;0.00;;;;;;;15.66;70.88;100864.06;5010903;28;20188;-71
2022/08/12 03:10:21;;;;;;;0.00;0.00;;;;;;;15.65;71.46;100856.94;5010954;28;20201;-71
2022/08/12 03:12:47;;;;;;;0.00;0.00;;;;;;;15.53;71.75;100849.38;5011010;28;20271;-71
2022/08/12 03:15:15;;;;;;;0.00;0.00;;;;;;;15.53;72.21;100852.13;5009967;28;20228;-71
2022/08/12 03:17:48;;;;;;;0.00;0.00;;;;;;;15.59;72.47;100856.31;5010799;28;20272;-71
2022/08/12 03:20:16;;;;;;;0.00;0.00;;;;;;;15.41;72.34;100846.53;5010610;28;20616;-71
2022/08/12 03:22:44;;;;;;;0.00;0.00;;;;;;;15.35;72.65;100851.44;5010809;28;20243;-71
2022/08/12 03:25:23;;;;;;;0.00;0.00;;;;;;;15.41;73.28;100857.56;5010984;28;20520;-71
2022/08/12 03:27:54;;;;;;;0.07;0.07;;;;;;;15.36;72.92;100846.75;5010482;28;20435;-71
2022/08/12 03:30:23;;;;;;;0.00;0.00;;;;;;;15.23;73.27;100853.31;5010468;28;20696;-73
2022/08/12 03:32:50;;;;;;;0.00;0.00;;;;;;;15.28;73.69;100853.91;5010763;28;20212;-73
2022/08/12 03:35:23;;;;;;;0.00;0.00;;;;;;;15.31;73.44;100853.25;5010659;28;20204;-74
2022/08/12 03:37:49;;;;;;;0.00;0.00;;;;;;;15.31;73.63;100844.16;5010678;28;20627;-71
2022/08/12 03:41:33;;;;;;;0.00;0.00;;;;;;;15.23;73.51;100856.88;5010071;28;20210;-71
2022/08/12 04:02:23;;;;;;;0.00;0.00;;;;;;;14.96;75.27;100855.38;5015034;28;20199;-71
2022/08/12 04:04:49;;;;;;;0.00;0.00;;;;;;;14.95;75.13;100862.03;5014962;28;20188;-71
2022/08/12 04:07:15;;;;;;;0.00;0.00;;;;;;;15.01;75.64;100862.63;5015368;28;20184;-71
2022/08/12 04:09:43;;;;;;;0.13;0.13;;;;;;;14.88;75.43;100859.75;5014751;28;20260;-71
2022/08/12 04:14:57;;;;;;;0.00;0.00;;;;;;;14.95;76.59;100864.78;5014346;28;20211;-71
2022/08/12 04:17:25;;;;;;;0.03;0.03;;;;;;;14.84;76.36;100872.56;5014379;28;20183;-71
2022/08/12 04:19:51;;;;;;;0.00;0.00;;;;;;;14.82;77.32;100868.53;5014150;28;20649;-71
2022/08/12 04:22:16;;;;;;;0.00;0.00;;;;;;;14.87;77.79;100869.16;5014708;28;20208;-71
2022/08/12 04:24:43;;;;;;;0.00;0.00;;;;;;;14.93;78.20;100871.75;5014446;28;20191;-71
2022/08/12 04:27:10;;;;;;;0.00;0.00;;;;;;;14.87;76.80;100882.91;5013770;28;20327;-71
2022/08/12 04:29:39;;;;;;;0.00;0.00;;;;;;;14.80;76.98;100882.63;5013015;28;20251;-71
2022/08/12 04:32:05;;;;;;;0.00;0.00;;;;;;;14.96;77.36;100876.59;5011757;28;20199;-71
2022/08/12 04:34:31;;;;;;;0.00;0.00;;;;;;;15.01;76.78;100876.38;5011658;28;20176;-71
2022/08/12 04:36:57;;;;;;;0.00;0.00;;;;;;;15.05;76.43;100877.38;5011455;28;20180;-71
2022/08/12 04:39:25;;;;;;;0.00;0.00;;;;;;;15.26;76.52;100883.72;5011208;28;20561;-72
2022/08/12 04:41:50;;;;;;;0.10;0.10;;;;;;;15.41;75.80;100880.41;5012954;28;20176;-72
2022/08/12 04:44:16;;;;;;;0.00;0.00;;;;;;;15.45;74.95;100877.78;5012755;28;20203;-71
2022/08/12 04:46:41;;;;;;;0.00;0.00;;;;;;;15.50;75.22;100874.84;5012713;28;20203;-72
2022/08/12 04:49:07;;;;;;;0.00;0.00;;;;;;;15.50;74.90;100871.28;5012485;28;20176;-71
2022/08/12 04:51:34;;;;;;;0.00;0.00;;;;;;;15.50;75.31;100877.59;5012650;28;20200;-71
2022/08/12 04:54:01;;;;;;;0.00;0.00;;;;;;;15.44;75.20;100871.47;5012613;28;20545;-71
2022/08/12 04:56:28;;;;;;;0.00;0.00;;;;;;;15.38;75.40;100878.31;5012447;28;20168;-71
2022/08/12 04:58:54;;;;;;;0.00;0.00;;;;;;;15.42;75.51;100871.00;5011963;28;20211;-71
2022/08/12 05:01:19;;;;;;;0.00;0.00;;;;;;;15.48;75.33;100877.94;5012666;28;20204;-71
2022/08/12 05:03:45;;;;;;;0.00;0.00;;;;;;;15.56;76.27;100875.44;5012632;28;20196;-71
2022/08/12 05:06:11;;;;;;;0.00;0.00;;;;;;;15.65;76.21;100874.28;5011258;28;20180;-71
2022/08/12 05:08:36;;;;;;;0.00;0.00;;;;;;;15.71;75.83;100880.38;5010850;28;20656;-72
2022/08/12 05:11:02;;;;;;;0.00;0.00;;;;;;;15.73;75.13;100880.84;5012044;28;20201;-71
2022/08/12 05:13:36;;;;;;;0.00;0.00;;;;;;;15.77;75.41;100879.88;5011531;28;20196;-71
2022/08/12 05:16:02;;;;;;;0.00;0.00;;;;;;;15.84;75.20;100892.28;5012419;28;20160;-71
2022/08/12 05:18:27;;;;;;;0.00;0.00;;;;;;;16.01;74.25;100897.66;5011786;28;20177;-71
2022/08/12 05:20:52;;;;;;;0.00;0.00;;;;;;;16.19;73.53;100899.13;5012305;28;20191;-71
2022/08/12 05:23:19;;;;;;;0.00;0.00;;;;;;;16.32;73.07;100898.03;5012259;28;20664;-71
2022/08/12 05:25:50;;;;;;;0.00;0.00;;;;;;;16.36;73.66;100903.69;5012223;28;20235;-71
2022/08/12 05:28:16;;;;;;;0.00;0.00;;;;;;;16.37;74.32;100899.78;4974341;28;1100903;-71
2022/08/12 05:30:44;;;;;;;0.00;0.00;;;;;;;16.43;73.80;100903.13;5011850;28;20576;-72
2022/08/12 05:33:11;;;;;;;0.00;0.00;;;;;;;16.46;73.46;100899.69;5013075;28;20181;-71
2022/08/12 05:35:41;;;;;;;0.00;0.00;;;;;;;16.50;73.05;100903.41;5013037;28;20663;-72
2022/08/12 05:40:56;;;;;;;0.00;0.00;;;;;;;16.68;73.94;100904.84;5013002;28;20555;-71
2022/08/12 05:43:24;;;;;;;0.00;0.00;;;;;;;16.81;73.61;100908.44;5012973;28;20209;-71
2022/08/12 05:45:49;;;;;;;0.00;0.00;;;;;;;16.90;73.84;100909.16;5012932;28;20696;-71
2022/08/12 05:48:15;;;;;;;0.00;0.00;;;;;;;16.92;72.82;100904.91;5009671;28;20264;-72
2022/08/12 05:50:42;;;;;;;0.00;0.00;;;;;;;17.03;72.22;100916.28;5011237;28;20172;-71
2022/08/12 05:53:08;;;;;;;0.00;0.00;;;;;;;17.20;71.67;100912.50;5011661;28;20179;-72
2022/08/12 05:55:34;;;;;;;0.00;0.00;;;;;;;17.47;70.58;100919.31;5012809;28;20668;-73
2022/08/12 05:58:01;;;;;;;0.00;0.00;;;;;;;17.62;70.79;100923.31;5012867;28;20259;-73
2022/08/12 06:00:30;;;;;;;0.00;0.00;;;;;;;17.98;69.21;100937.13;5012266;28;20175;-73
2022/08/12 06:03:02;;;;;;;0.00;0.00;;;;;;;18.18;66.79;100931.75;5011717;28;20200;-72
2022/08/12 06:05:37;;;;;;;0.00;0.00;;;;;;;18.30;65.30;100935.28;5012470;28;20190;-73
2022/08/12 06:08:07;;;;;;;0.00;0.00;;;;;;;18.33;65.77;100939.31;5010373;28;20555;-73
2022/08/12 06:10:34;;;;;;;0.00;0.00;;;;;;;18.40;64.37;100934.00;5034100;28;20189;-75
2022/08/12 06:13:04;;;;;;;0.00;0.00;;;;;;;18.54;62.54;100942.69;5011101;28;20180;-73
2022/08/12 06:15:30;;;;;;;0.00;0.00;;;;;;;18.71;61.50;100956.25;5004088;28;20181;-73
2022/08/12 06:18:06;;;;;;;0.37;0.37;;;;;;;18.87;60.54;100947.97;4992588;28;20272;-73
2022/08/12 06:20:32;;;;;;;0.23;0.23;;;;;;;18.89;60.03;100950.38;4992421;28;20223;-73
2022/08/12 06:22:57;;;;;;;1.30;1.30;;;;;;;18.95;60.36;100955.31;4990523;28;20200;-73
2022/08/12 06:25:27;;;;;;;0.00;0.00;;;;;;;19.00;61.42;100957.81;4995237;28;20180;-73
2022/08/12 06:27:53;;;;;;;0.00;0.00;;;;;;;19.09;60.66;100956.81;5011776;28;20188;-73
2022/08/12 06:30:21;;;;;;;0.00;0.00;;;;;;;19.08;60.37;100960.75;5011809;28;20172;-73
2022/08/12 06:32:48;;;;;;;0.30;0.30;;;;;;;19.10;60.91;100953.72;5012080;28;20672;-73
2022/08/12 06:35:16;;;;;;;0.00;0.00;;;;;;;19.15;61.64;100961.75;5011929;28;20211;-73
2022/08/12 06:37:44;;;;;;;0.00;0.00;;;;;;;19.17;61.67;100961.41;5010442;28;20209;-73
2022/08/12 06:40:11;;;;;;;0.57;0.57;;;;;;;19.33;61.78;100964.97;5011447;28;20192;-73
2022/08/12 06:42:46;;;;;;;0.00;0.00;;;;;;;19.44;61.78;100968.00;5011834;28;20207;-73
2022/08/12 06:45:13;;;;;;;0.00;0.00;;;;;;;19.50;62.13;100964.59;5011796;28;20659;-73
2022/08/12 06:47:39;;;;;;;0.00;0.00;;;;;;;19.66;62.15;100966.56;5011879;28;20176;-73
2022/08/12 06:50:05;;;;;;;0.00;0.00;;;;;;;19.77;61.48;100964.88;5011403;28;20629;-74
2022/08/12 06:52:31;;;;;;;0.13;0.13;;;;;;;19.94;62.21;100969.19;5011755;28;20181;-73
2022/08/12 06:54:57;;;;;;;0.50;0.50;;;;;;;20.15;62.15;100964.94;5011639;28;20170;-73
2022/08/12 06:57:25;;;;;;;0.00;0.00;;;;;;;20.16;60.17;100965.75;5011556;28;20601;-73
2022/08/12 06:59:50;;;;;;;0.00;0.00;;;;;;;20.37;60.63;100973.72;5011283;28;20177;-73
2022/08/12 07:02:18;;;;;;;0.00;0.00;;;;;;;20.52;60.89;100956.19;5010653;28;20184;-73
2022/08/12 07:04:44;;;;;;;18.03;2.60;;;;;;;20.72;60.08;100968.91;5011467;28;20535;-73
2022/08/12 07:07:11;;;;;;;0.00;0.00;;;;;;;20.91;59.37;100970.03;5011136;28;20210;-73
2022/08/12 07:09:38;;;;;;;0.40;0.40;;;;;;;21.12;58.16;100967.66;5011202;28;20173;-73
2022/08/12 07:12:04;;;;;;;0.03;0.03;;;;;;;21.35;58.32;100976.81;5014036;28;20171;-73
2022/08/12 07:14:29;;;;;;;0.37;0.37;;;;;;;21.24;57.14;100966.66;5014382;28;20176;-73
2022/08/12 07:17:00;;;;;;;0.00;0.00;;;;;;;21.26;57.51;100967.13;5010685;28;20332;-73
2022/08/12 07:19:26;;;;;;;0.00;0.00;;;;;;;21.40;56.53;100978.47;5011540;28;20457;-73
2022/08/12 07:21:52;;;;;;;0.80;0.23;;;;;;;;;;5011967;28;20512;-73
2022/08/12 07:24:17;;;;;;;0.00;0.00;;;;;;;21.72;55.88;100981.78;5010322;28;20635;-73
2022/08/12 07:26:43;;;;;;;0.00;0.00;;;;;;;21.82;54.80;100985.91;5002721;28;20199;-73
2022/08/12 07:29:09;;;;;;;1.30;1.30;;;;;;;21.89;54.45;100978.47;4991381;28;20164;-74
2022/08/12 07:31:36;;;;;;;0.23;0.20;;;;;;;21.98;52.89;100984.56;4991584;28;20260;-73
2022/08/12 07:34:01;;;;;;;1.40;1.40;;;;;;;22.10;53.60;100988.31;4991594;28;20250;-74
2022/08/12 07:36:27;;;;;;;0.00;0.00;;;;;;;22.24;52.90;100986.53;4990156;28;20662;-74
2022/08/12 07:38:52;;;;;;;0.00;0.00;;;;;;;22.30;52.43;100991.78;4989695;28;20184;-74
2022/08/12 07:41:24;;;;;;;0.00;0.00;;;;;;;22.37;53.73;100995.47;4992322;28;20598;-74
2022/08/12 07:43:55;;;;;;;0.00;0.00;;;;;;;22.47;53.16;100996.78;5028016;28;20204;-73
2022/08/12 07:46:24;;;;;;;0.00;0.00;;;;;;;22.58;52.99;101005.28;5010991;28;20204;-73
2022/08/12 07:48:53;;;;;;;2.47;1.70;;;;;;;22.74;52.10;101005.88;5010632;28;20177;-73
2022/08/12 07:51:21;;;;;;;0.00;0.00;;;;;;;22.86;51.60;101005.63;5009643;28;20176;-74
2022/08/12 07:53:47;;;;;;;0.10;0.00;;;;;;;22.94;51.11;100998.16;5009801;28;20550;-73
2022/08/12 07:56:13;;;;;;;0.00;0.00;;;;;;;23.05;51.30;101002.66;5003504;28;20197;-73
2022/08/12 07:58:39;;;;;;;0.00;0.00;;;;;;;23.13;50.59;100992.34;5010359;28;20179;-73
2022/08/12 08:01:10;;;;;;;0.00;0.00;;;;;;;23.24;50.51;101003.63;5010879;28;20173;-73
2022/08/12 08:04:54;;;;;;;0.00;0.00;;;;;;;23.40;49.94;101004.16;5009819;28;20204;-73
2022/08/12 08:06:26;;;;;;;0.33;0.20;;;;;;;23.48;49.32;100997.47;4990849;28;20193;-71
2022/08/12 08:08:55;;;;;;;1.40;0.57;;;;;;;23.54;49.48;101003.47;4990471;28;20323;-70
2022/08/12 08:14:06;;;;;;;0.30;0.30;;;;;;;24.17;48.13;101017.13;5010743;28;20167;-71
2022/08/12 08:16:32;;;;;;;0.00;0.00;;;;;;;24.29;47.25;101010.41;5009248;28;20193;-71
2022/08/12 08:18:58;;;;;;;0.00;0.00;;;;;;;24.40;46.37;101002.09;5010222;28;20168;-72
2022/08/12 08:21:32;;;;;;;0.07;0.03;;;;;;;24.52;45.74;101002.56;5010167;28;20236;-73
2022/08/12 08:24:13;;;;;;;0.00;0.00;;;;;;;24.79;44.96;101007.84;5010216;28;20609;-73
2022/08/12 08:26:39;;;;;;;0.00;0.00;;;;;;;24.70;42.31;100999.81;5008858;28;20177;-73
2022/08/12 08:29:04;;;;;;;0.00;0.00;;;;;;;24.80;40.56;101001.06;5010808;28;20303;-72
2022/08/12 08:31:30;;;;;;;0.03;0.03;;;;;;;25.00;41.17;101005.13;5009216;28;20716;-74
2022/08/12 08:33:55;;;;;;;0.13;0.13;;;;;;;25.21;41.90;101002.38;5008318;28;20226;-71
2022/08/12 08:36:20;;;;;;;0.10;0.10;;;;;;;25.20;42.66;101005.59;4999426;28;20177;-71
2022/08/12 08:38:46;;;;;;;0.00;0.00;;;;;;;25.16;43.73;101001.97;4990183;28;20191;-71
2022/08/12 08:43:58;;;;;;;0.00;0.00;;;;;;;25.50;40.89;101008.00;4991001;28;20466;-71
2022/08/12 08:46:24;;;;;;;0.00;0.00;;;;;;;25.45;41.02;101006.38;4992156;28;20216;-71
2022/08/12 08:48:50;;;;;;;0.00;0.00;;;;;;;25.50;41.01;101005.19;4993011;28;20247;-71
2022/08/12 08:51:15;;;;;;;0.00;0.00;;;;;;;25.61;41.45;101008.00;4994378;28;20207;-71
2022/08/12 08:53:42;;;;;;;0.10;0.10;;;;;;;25.88;40.46;101006.38;4994366;28;20524;-70
2022/08/12 08:56:09;;;;;;;0.00;0.00;;;;;;;25.92;40.25;101012.00;4994015;28;20708;-71
2022/08/12 08:58:37;;;;;;;0.00;0.00;;;;;;;26.00;38.85;100999.56;4993704;28;20180;-71
2022/08/12 09:01:03;;;;;;;0.00;0.00;;;;;;;26.04;38.00;101001.19;4994239;28;20182;-70
2022/08/12 09:03:29;;;;;;;0.00;0.00;;;;;;;26.02;38.84;100995.16;4994350;28;20208;-72
2022/08/12 09:05:55;;;;;;;0.10;0.10;;;;;;;26.22;39.78;100989.13;5001200;28;20185;-71
2022/08/12 09:08:21;;;;;;;0.30;0.23;;;;;;;26.48;39.07;100994.25;5015539;28;20184;-71
2022/08/12 09:10:47;;;;;;;0.40;0.40;;;;;;;26.67;36.99;100993.75;5013747;28;20181;-71
2022/08/12 09:13:28;;;;;;;0.30;0.30;;;;;;;26.52;36.38;100992.25;5012359;28;20182;-71
2022/08/12 09:15:53;;;;;;;0.33;0.33;;;;;;;26.58;37.23;100987.78;5013450;28;20187;-71
2022/08/12 09:18:19;;;;;;;0.87;0.50;;;;;;;26.60;36.85;100984.56;5012950;28;20535;-71
2022/08/12 09:20:47;;;;;;;0.20;0.00;;;;;;;26.61;37.24;100991.78;5013714;28;20183;-71
2022/08/12 09:23:12;;;;;;;0.00;0.00;;;;;;;26.67;36.82;100984.56;5013376;28;20296;-71
2022/08/12 09:25:39;;;;;;;4.23;1.30;;;;;;;26.80;36.49;100982.88;5013323;28;20197;-71
2022/08/12 09:28:09;;;;;;;0.00;0.00;;;;;;;26.92;35.16;100985.22;5013037;28;20190;-70
2022/08/12 09:30:35;;;;;;;0.10;0.10;;;;;;;26.81;35.31;100983.69;5013277;28;20178;-71
2022/08/12 09:33:01;;;;;;;0.77;0.10;;;;;;;26.71;34.84;100971.31;5013177;28;20182;-70
2022/08/12 09:35:32;;;;;;;0.07;0.07;;;;;;;26.81;36.02;100970.47;5012836;28;20186;-71
2022/08/12 09:38:03;;;;;;;0.00;0.00;;;;;;;26.97;35.18;100965.16;5009382;28;20204;-71
2022/08/12 09:40:29;;;;;;;0.00;0.00;;;;;;;27.06;34.35;100964.72;5012555;28;20218;-70
2022/08/12 09:45:45;;;;;;;0.07;0.07;;;;;;;27.24;34.86;100959.78;5012969;28;20209;-70
2022/08/12 09:48:15;;;;;;;0.10;0.10;;;;;;;27.21;33.42;100969.03;5010979;28;20713;-71
2022/08/12 09:50:42;;;;;;;0.23;0.20;;;;;;;27.21;33.90;100954.19;5012731;28;20639;-70
2022/08/12 09:53:12;;;;;;;0.43;0.10;;;;;;;26.97;33.98;100961.53;5012794;28;20183;-71
2022/08/12 09:55:42;;;;;;;0.47;0.47;;;;;;;26.92;34.48;100950.78;5012619;28;20190;-70
2022/08/12 09:58:07;;;;;;;0.10;0.10;;;;;;;27.03;33.94;100947.91;5011539;28;20179;-71
2022/08/12 10:00:35;;;;;;;0.50;0.50;;;;;;;26.94;34.08;100946.34;5012511;28;20525;-71
2022/08/12 10:03:09;;;;;;;0.27;0.20;;;;;;;27.12;34.39;100948.25;5012642;28;20844;-71
2022/08/12 10:05:39;;;;;;;0.13;0.13;;;;;;;26.99;33.70;100939.50;5012678;28;20251;-71
2022/08/12 10:08:09;;;;;;;0.07;0.00;;;;;;;26.78;34.00;100934.84;5012379;28;20257;-70
2022/08/12 10:13:40;;;;;;;0.37;0.37;;;;;;;27.07;35.27;100938.28;5011237;28;20553;-70
2022/08/12 10:13:41;;;;;;;0.87;0.87;;;;;;;26.97;34.71;100931.50;5012397;28;20609;-70
2022/08/12 10:16:07;;;;;;;9.53;3.53;;;;;;;27.23;35.06;100930.13;5012644;28;20168;-70
2022/08/12 10:18:36;;;;;;;0.00;0.00;;;;;;;27.21;33.84;100924.13;5011722;28;20173;-70
2022/08/12 10:21:10;;;;;;;0.00;0.00;;;;;;;27.24;33.96;100922.50;5011410;28;20520;-70
2022/08/12 10:23:36;;;;;;;0.00;0.00;;;;;;;27.44;33.93;100923.50;5012172;28;20210;-70
2022/08/12 10:31:31;;;;;;;0.00;0.00;;;;;;;27.50;34.28;100913.44;5012191;28;20674;-70
2022/08/12 10:33:56;;;;;;;0.10;0.10;;;;;;;27.66;33.81;100907.28;5011239;28;20205;-70
2022/08/12 10:36:23;;;;;;;0.20;0.00;;;;;;;27.75;34.20;100901.97;5006968;28;20566;-70
2022/08/12 10:38:49;;;;;;;0.00;0.00;;;;;;;27.86;33.41;100901.84;5010953;28;20283;-70
2022/08/12 10:44:01;;;;;;;0.00;0.00;;;;;;;27.92;32.89;100908.63;5010853;28;20313;-70
2022/08/12 10:46:27;;;;;;;0.00;0.00;;;;;;;27.69;32.89;100891.63;5011802;28;20581;-70
2022/08/12 10:48:52;;;;;;;0.10;0.10;;;;;;;27.82;33.16;100901.91;5010443;28;20187;-71
2022/08/12 10:51:18;;;;;;;1.23;1.10;;;;;;;28.13;32.69;100890.69;5008593;28;20213;-71
2022/08/12 10:53:47;;;;;;;0.00;0.00;;;;;;;28.14;32.39;100895.88;5005038;28;20278;-71
2022/08/12 10:56:14;;;;;;;0.10;0.10;;;;;;;28.38;32.71;100899.63;5017502;28;20564;-71
2022/08/12 10:58:39;;;;;;;0.20;0.20;;;;;;;28.03;32.46;100886.78;4989982;28;20182;-71
2022/08/12 11:01:09;;;;;;;0.00;0.00;;;;;;;27.95;33.17;100893.72;5037216;28;20188;-71
2022/08/12 11:03:38;;;;;;;0.00;0.00;;;;;;;28.24;32.87;100882.91;5011581;28;20222;-71
2022/08/12 11:06:08;;;;;;;0.00;0.00;;;;;;;28.48;32.32;100891.44;5011512;28;20550;-71
2022/08/12 11:08:36;;;;;;;0.67;0.67;;;;;;;28.66;32.46;100880.75;5008701;28;20180;-71
2022/08/12 11:11:07;;;;;;;0.10;0.10;;;;;;;28.31;32.13;100891.28;5011476;28;20723;-71
2022/08/12 11:13:33;;;;;;;0.70;0.67;;;;;;;28.00;32.14;100881.22;5011359;28;20171;-71
2022/08/12 11:15:58;;;;;;;0.87;0.87;;;;;;;27.73;33.15;100881.13;5011137;28;20532;-71
2022/08/12 11:18:23;;;;;;;0.23;0.23;;;;;;;27.96;33.34;100880.47;5010775;28;20184;-71
2022/08/12 11:20:49;;;;;;;0.17;0.17;;;;;;;27.95;32.79;100870.47;5010893;28;20175;-71
2022/08/12 11:23:15;;;;;;;0.10;0.10;;;;;;;27.73;33.10;100869.91;5010978;28;20206;-71
2022/08/12 11:25:43;;;;;;;1.67;0.70;;;;;;;28.14;32.13;100867.78;5010695;28;20208;-71
2022/08/12 11:28:09;;;;;;;0.00;0.00;;;;;;;28.29;32.05;100862.78;5009256;28;20248;-71
2022/08/12 11:30:34;;;;;;;0.17;0.17;;;;;;;28.03;31.94;100866.31;5011462;28;20210;-71
2022/08/12 11:33:00;;;;;;;0.00;0.00;;;;;;;28.02;32.04;100864.75;5011161;28;20183;-71
2022/08/12 11:35:26;;;;;;;0.00;0.00;;;;;;;27.95;32.05;100854.41;5010838;28;20180;-71
2022/08/12 11:37:52;;;;;;;0.00;0.00;;;;;;;28.36;33.73;100856.28;5010687;28;20173;-71
2022/08/12 11:40:18;;;;;;;0.00;0.00;;;;;;;28.73;31.17;100856.13;5009304;28;20198;-71
2022/08/12 11:42:43;;;;;;;0.00;0.00;;;;;;;28.37;31.05;100852.25;5009445;28;20222;-71
2022/08/12 11:45:09;;;;;;;0.60;0.60;;;;;;;28.64;31.64;100844.63;5010835;28;20659;-70
2022/08/12 11:47:34;;;;;;;0.00;0.00;;;;;;;28.55;31.09;100843.56;5010685;28;20208;-71
2022/08/12 11:50:00;;;;;;;7.03;5.83;;;;;;;28.50;30.68;100844.03;5010631;28;20273;-71
2022/08/12 11:52:25;;;;;;;0.00;0.00;;;;;;;28.54;31.43;100831.50;5010827;28;20637;-71
2022/08/12 11:54:50;;;;;;;0.20;0.20;;;;;;;28.84;31.36;100841.09;5010819;28;20189;-71
2022/08/12 11:57:16;;;;;;;0.00;0.00;;;;;;;28.90;31.07;100834.56;5009054;28;20223;-71
2022/08/12 11:59:42;;;;;;;0.00;0.00;;;;;;;28.99;30.49;100832.00;5010681;28;20184;-71
2022/08/12 12:02:07;;;;;;;0.40;0.40;;;;;;;28.21;30.92;100833.19;5010918;28;20196;-71
2022/08/12 12:04:33;;;;;;;0.10;0.07;;;;;;;28.37;32.16;100833.38;5010782;28;20216;-71
2022/08/12 12:06:58;;;;;;;0.10;0.10;;;;;;;28.45;31.17;100826.41;5009237;28;20176;-71
2022/08/12 12:09:24;;;;;;;0.47;0.47;;;;;;;28.60;32.31;100823.38;5009562;28;20183;-71
2022/08/12 12:11:49;;;;;;;0.00;0.00;;;;;;;28.84;32.33;100821.41;5009502;28;20179;-71
2022/08/12 12:14:15;;;;;;;0.30;0.30;;;;;;;28.47;31.59;100808.31;5011103;28;20192;-71
2022/08/12 12:16:40;;;;;;;0.63;0.37;;;;;;;28.52;31.72;100803.03;5010539;28;20264;-71
2022/08/12 12:19:07;;;;;;;0.63;0.63;;;;;;;28.62;32.00;100812.50;5009007;28;20542;-71
2022/08/12 12:21:32;;;;;;;0.57;0.57;;;;;;;28.54;31.88;100786.53;5012354;28;20237;-71
2022/08/12 12:23:58;;;;;;;0.00;0.00;;;;;;;28.79;32.18;100800.19;5011577;28;20204;-71
2022/08/12 12:26:24;;;;;;;0.10;0.10;;;;;;;28.88;32.26;100794.03;5014143;28;20246;-71
2022/08/12 12:28:49;;;;;;;0.30;0.00;;;;;;;28.52;31.43;100782.56;5013593;28;20195;-71
2022/08/12 12:31:14;;;;;;;2.83;0.20;;;;;;;28.65;31.25;100784.34;5014395;28;20234;-71
2022/08/12 12:33:39;;;;;;;0.20;0.20;;;;;;;28.83;30.78;100778.41;5013161;28;20180;-71
2022/08/12 12:36:06;;;;;;;0.83;0.83;;;;;;;28.87;30.67;100781.19;5014401;28;20181;-71
2022/08/12 12:38:32;;;;;;;0.20;0.20;;;;;;;28.72;30.77;100784.22;5013753;28;20624;-71
2022/08/12 12:40:58;;;;;;;0.00;0.00;;;;;;;29.10;31.28;100781.16;5014609;28;20182;-71
2022/08/12 12:43:23;;;;;;;0.00;0.00;;;;;;;29.20;31.03;100777.34;5014281;28;20211;-72
2022/08/12 12:45:51;;;;;;;0.10;0.10;;;;;;;28.74;30.93;100773.31;5014060;28;20192;-71
2022/08/12 12:48:19;;;;;;;0.80;0.70;;;;;;;28.64;30.40;100776.31;5013499;28;20267;-72
2022/08/12 12:53:35;;;;;;;0.00;0.00;;;;;;;28.86;31.18;100769.09;5013961;28;20235;-71
2022/08/12 12:56:01;;;;;;;0.60;0.60;;;;;;;29.34;30.72;100777.06;5013760;28;20203;-71
2022/08/12 12:58:26;;;;;;;0.13;0.13;;;;;;;29.37;29.77;100778.25;5011895;28;20177;-72
2022/08/12 13:00:54;;;;;;;0.17;0.17;;;;;;;28.91;29.17;100765.81;5013945;28;20676;-71
2022/08/12 13:03:20;;;;;;;0.13;0.13;;;;;;;29.41;29.40;100784.59;5013945;28;20196;-71
2022/08/12 13:05:46;;;;;;;0.20;0.20;;;;;;;29.38;30.51;100774.19;5013800;28;20248;-71
2022/08/12 13:08:23;;;;;;;0.00;0.00;;;;;;;29.74;29.51;100782.72;5016046;28;20281;-71
2022/08/12 13:10:53;;;;;;;0.00;0.00;;;;;;;29.68;29.37;100772.41;5020553;28;20180;-71
2022/08/12 13:13:20;;;;;;;0.00;0.00;;;;;;;29.51;29.29;100768.72;5014151;28;20181;-71
2022/08/12 13:15:48;;;;;;;0.10;0.10;;;;;;;28.71;29.22;100760.13;5016139;28;20181;-71